Andes, New York
Current Conditions -  °F | °C
As of 5:35 AM on Sunday 26 Oct 2014 (Local Time) from KMSV Reporting Station
Clear Clear  
Wind Chill: 35°   Ceiling: Unl
Heat Index: 41°   Visibility: 10mi
Dew Point: 39°   Wind: 9mph
Humidity: 93%   Direction: 280°W
Pressure: 29.6"   Gusts: NA
Location:  42.19°N, 74.79°W
Report Text: KMSV 260935Z AUTO 28008KT 10SM CLR 05/04 A2960 RMK AO1
Loading
Personal Weather Stations






























Interactive Weather Map
Tropical Storm Tracking
New forecast layout! Learn more

10-Day Weather Forecast

Advertisements
Track Severe Weather on mobile